Time;durP1;ratioP1;P1;durP2;ratioP2;P2;SDS_P1;SDS_P2;PMS_P1;PMS_P2;Temp;Humidity;BMP_temperature;BMP_pressure;BME280_temperature;BME280_humidity;BME280_pressure;Samples;Min_cycle;Max_cycle;Signal;HPM_P1;HPM_P2
2021/05/20 00:01:00;;;;;;;0.82;0.80;;;14.30;96.90;;;;;;5094885;28;20028;-76
2021/05/20 00:03:26;;;;;;;1.15;0.95;;;14.30;96.80;;;;;;5095191;28;20035;-77
2021/05/20 00:05:52;;;;;;;1.77;1.00;;;14.30;96.80;;;;;;5095093;28;20049;-78
2021/05/20 00:08:18;;;;;;;1.30;0.95;;;14.40;96.70;;;;;;5095281;28;20032;-78
2021/05/20 00:10:43;;;;;;;2.10;1.10;;;14.40;96.60;;;;;;5095256;28;20073;-78
2021/05/20 00:13:09;;;;;;;1.20;1.10;;;14.30;96.50;;;;;;5095719;28;20036;-78
2021/05/20 00:15:35;;;;;;;1.17;1.08;;;14.30;96.60;;;;;;5094732;28;20044;-78
2021/05/20 00:18:01;;;;;;;1.38;1.10;;;14.40;96.50;;;;;;5095048;28;20028;-77
2021/05/20 00:20:26;;;;;;;2.53;1.40;;;14.40;96.50;;;;;;5088346;28;20039;-76
2021/05/20 00:22:52;;;;;;;1.00;0.90;;;14.50;96.40;;;;;;5095729;28;20059;-78
2021/05/20 00:25:18;;;;;;;1.25;1.10;;;14.50;96.30;;;;;;5089013;28;20105;-77
2021/05/20 00:27:43;;;;;;;1.30;1.00;;;14.50;96.00;;;;;;5094342;28;20020;-77
2021/05/20 00:30:10;;;;;;;1.20;1.10;;;14.40;95.90;;;;;;5090806;28;20021;-77
2021/05/20 00:32:36;;;;;;;1.20;1.10;;;14.40;95.80;;;;;;5092350;28;20481;-77
2021/05/20 00:35:03;;;;;;;1.15;0.90;;;14.40;95.80;;;;;;5089196;28;20024;-77
2021/05/20 00:37:29;;;;;;;3.30;1.40;;;14.40;96.00;;;;;;5090078;28;20058;-77
2021/05/20 00:39:55;;;;;;;5.22;1.90;;;14.40;95.90;;;;;;5093883;28;20020;-77
2021/05/20 00:42:21;;;;;;;6.20;2.25;;;14.40;95.90;;;;;;5093315;28;20393;-77
2021/05/20 00:44:58;;;;;;;6.00;2.50;;;14.40;95.80;;;;;;5092906;28;20036;-77
2021/05/20 00:47:29;;;;;;;5.93;1.80;;;14.40;95.70;;;;;;5093889;28;20028;-77
2021/05/20 00:49:54;;;;;;;3.63;1.80;;;14.40;95.70;;;;;;5097346;28;20069;-77
2021/05/20 00:52:21;;;;;;;4.40;1.90;;;14.30;95.80;;;;;;5094949;28;20031;-77
2021/05/20 00:54:50;;;;;;;2.88;1.90;;;14.30;95.70;;;;;;5094521;28;20069;-77
2021/05/20 00:57:17;;;;;;;4.40;2.00;;;14.30;95.70;;;;;;5093544;28;20024;-77
2021/05/20 00:59:43;;;;;;;4.43;2.00;;;14.30;95.70;;;;;;5093415;28;20028;-77
2021/05/20 01:02:12;;;;;;;6.28;2.53;;;14.30;95.80;;;;;;5093633;28;20035;-77
2021/05/20 01:04:38;;;;;;;5.35;2.80;;;14.40;95.60;;;;;;5094690;28;20107;-78
2021/05/20 01:07:04;;;;;;;6.47;2.17;;;14.30;95.70;;;;;;5093815;28;20119;-77
2021/05/20 01:09:32;;;;;;;4.20;2.10;;;14.30;95.80;;;;;;5093108;28;20111;-78
2021/05/20 01:11:58;;;;;;;4.32;1.77;;;14.30;95.70;;;;;;5094554;28;20024;-77
2021/05/20 01:14:24;;;;;;;3.88;2.15;;;14.30;95.60;;;;;;5093268;28;20031;-79
2021/05/20 01:16:49;;;;;;;3.25;1.85;;;14.30;95.60;;;;;;5092844;28;20047;-77
2021/05/20 01:19:15;;;;;;;2.15;1.40;;;14.20;95.60;;;;;;5093207;28;20111;-77
2021/05/20 01:21:43;;;;;;;3.20;1.50;;;14.20;95.60;;;;;;5094003;28;20126;-77
2021/05/20 01:24:10;;;;;;;2.22;1.50;;;14.20;95.50;;;;;;5092905;28;20055;-76
2021/05/20 01:26:40;;;;;;;2.20;1.50;;;14.20;95.50;;;;;;5093691;28;20438;-78
2021/05/20 01:29:07;;;;;;;2.30;1.48;;;14.20;95.50;;;;;;5094280;28;20028;-76
2021/05/20 01:31:33;;;;;;;2.22;1.42;;;14.20;95.50;;;;;;5093037;28;20047;-76
2021/05/20 01:33:58;;;;;;;2.53;1.58;;;14.10;95.50;;;;;;5092465;28;20024;-76
2021/05/20 01:36:28;;;;;;;2.92;1.70;;;14.10;95.80;;;;;;5092927;28;20467;-80
2021/05/20 01:38:58;;;;;;;4.05;1.83;;;14.10;95.70;;;;;;5109309;28;20111;-76
2021/05/20 01:41:23;;;;;;;3.38;1.88;;;14.10;95.90;;;;;;5092618;28;20052;-76
2021/05/20 01:43:49;;;;;;;2.67;1.52;;;14.10;95.80;;;;;;5092866;28;20062;-76
2021/05/20 01:46:15;;;;;;;3.65;1.63;;;14.10;95.80;;;;;;5092430;28;20047;-76
2021/05/20 01:48:43;;;;;;;2.53;1.50;;;14.00;95.80;;;;;;5093529;28;20382;-76
2021/05/20 01:51:11;;;;;;;3.55;1.88;;;14.00;95.60;;;;;;5092021;28;20389;-76
2021/05/20 01:53:39;;;;;;;2.47;1.50;;;14.00;95.80;;;;;;5094113;28;20043;-76
2021/05/20 01:56:05;;;;;;;3.70;1.60;;;14.00;95.80;;;;;;5091798;28;20032;-76
2021/05/20 01:58:32;;;;;;;1.88;1.52;;;14.00;95.70;;;;;;5093263;28;20020;-76
2021/05/20 02:00:58;;;;;;;4.18;1.80;;;14.00;95.80;;;;;;5092508;28;20024;-76
2021/05/20 02:03:24;;;;;;;2.88;1.77;;;13.90;95.80;;;;;;5091833;28;20481;-76
2021/05/20 02:05:50;;;;;;;3.40;1.83;;;14.00;95.70;;;;;;5093526;28;20164;-76
2021/05/20 02:08:16;;;;;;;4.57;1.80;;;13.90;95.70;;;;;;5092001;28;20105;-76
2021/05/20 02:10:42;;;;;;;2.58;1.42;;;13.90;95.80;;;;;;5093055;28;20028;-76
2021/05/20 02:13:08;;;;;;;2.00;1.55;;;13.90;95.70;;;;;;5091996;28;20173;-76
2021/05/20 02:15:34;;;;;;;2.85;1.70;;;13.90;95.80;;;;;;5108892;28;20044;-76
2021/05/20 02:17:59;;;;;;;4.78;2.00;;;13.90;95.80;;;;;;5092060;28;20111;-76
2021/05/20 02:20:25;;;;;;;6.03;2.00;;;13.90;95.80;;;;;;5091299;28;20020;-79
2021/05/20 02:22:52;;;;;;;6.32;2.20;;;13.90;95.80;;;;;;5108980;28;20035;-76
2021/05/20 02:25:18;;;;;;;6.78;2.28;;;13.90;95.80;;;;;;5091667;28;20463;-76
2021/05/20 02:27:45;;;;;;;3.53;2.00;;;13.90;95.90;;;;;;5093193;28;20052;-76
2021/05/20 02:30:12;;;;;;;5.20;2.35;;;13.90;96.10;;;;;;5091474;28;20036;-76
2021/05/20 02:32:38;;;;;;;5.85;2.40;;;13.90;96.10;;;;;;5091425;28;20081;-76
2021/05/20 02:35:08;;;;;;;5.38;2.35;;;13.90;96.00;;;;;;5091614;28;20020;-76
2021/05/20 02:37:34;;;;;;;2.97;2.03;;;13.90;96.00;;;;;;5078232;28;20027;-76
2021/05/20 02:39:59;;;;;;;5.63;2.70;;;13.90;96.00;;;;;;5093048;28;20028;-76
2021/05/20 02:42:25;;;;;;;3.78;2.10;;;13.90;96.00;;;;;;5090851;28;20409;-81
2021/05/20 02:44:51;;;;;;;3.42;1.90;;;13.90;96.10;;;;;;5092968;28;20024;-74
2021/05/20 02:47:17;;;;;;;2.90;1.83;;;13.90;96.10;;;;;;5093050;28;20401;-74
2021/05/20 02:49:43;;;;;;;5.78;2.22;;;14.00;95.90;;;;;;5092924;28;20363;-74
2021/05/20 02:52:10;;;;;;;4.22;2.15;;;13.90;95.70;;;;;;5093118;28;20024;-74
2021/05/20 02:54:36;;;;;;;4.88;2.17;;;13.90;95.80;;;;;;5091283;28;20028;-75
2021/05/20 02:57:02;;;;;;;5.75;2.00;;;13.90;95.60;;;;;;5092888;28;20031;-74
2021/05/20 02:59:29;;;;;;;3.53;2.03;;;13.90;95.60;;;;;;5090552;28;20024;-75
2021/05/20 03:02:02;;;;;;;4.30;2.25;;;13.80;95.60;;;;;;5085757;28;20047;-72
2021/05/20 03:04:27;;;;;;;3.53;2.00;;;13.80;95.70;;;;;;5085106;28;20505;-75
2021/05/20 03:06:53;;;;;;;3.17;1.90;;;13.90;95.90;;;;;;5083928;28;20024;-74
2021/05/20 03:09:19;;;;;;;5.70;2.17;;;13.90;95.80;;;;;;5094750;28;20462;-75
2021/05/20 03:11:44;;;;;;;6.30;2.25;;;13.90;95.90;;;;;;5095121;28;20049;-74
2021/05/20 03:14:10;;;;;;;2.72;1.92;;;13.90;95.80;;;;;;5097041;28;20110;-74
2021/05/20 03:16:36;;;;;;;3.80;2.53;;;13.90;95.60;;;;;;5095044;28;20044;-75
2021/05/20 03:19:01;;;;;;;4.15;2.30;;;13.90;95.60;;;;;;5096633;28;20024;-74
2021/05/20 03:21:27;;;;;;;4.18;2.35;;;13.90;95.60;;;;;;5095653;28;20032;-74
2021/05/20 03:23:54;;;;;;;3.67;2.03;;;13.90;95.50;;;;;;5095402;28;20028;-74
2021/05/20 03:26:20;;;;;;;4.88;2.03;;;13.80;95.60;;;;;;5096238;28;20028;-74
2021/05/20 03:28:45;;;;;;;4.78;2.45;;;13.80;95.90;;;;;;5093113;28;20027;-74
2021/05/20 03:31:11;;;;;;;7.63;3.45;;;13.90;96.00;;;;;;5087672;28;20024;-74
2021/05/20 03:33:40;;;;;;;9.63;3.83;;;13.90;96.10;;;;;;5102309;28;20420;-74
2021/05/20 03:36:06;;;;;;;11.15;7.57;;;13.90;96.10;;;;;;5094949;28;20028;-74
2021/05/20 03:38:32;;;;;;;10.95;6.97;;;13.90;96.10;;;;;;5090417;28;20359;-74
2021/05/20 03:40:58;;;;;;;11.68;7.70;;;13.90;95.90;;;;;;5094358;28;20024;-74
2021/05/20 03:43:23;;;;;;;9.10;7.00;;;13.90;95.80;;;;;;5095694;28;20036;-74
2021/05/20 03:45:49;;;;;;;13.95;9.63;;;13.90;95.70;;;;;;5094625;28;20559;-74
2021/05/20 03:48:14;;;;;;;11.23;7.60;;;14.00;95.60;;;;;;5096262;28;20040;-74
2021/05/20 03:50:40;;;;;;;12.00;8.07;;;14.00;95.80;;;;;;5094510;28;20028;-74
2021/05/20 03:53:06;;;;;;;14.27;6.95;;;14.10;95.40;;;;;;5094991;28;20529;-74
2021/05/20 03:55:31;;;;;;;9.82;5.25;;;14.10;95.30;;;;;;5095681;28;20016;-75
2021/05/20 03:57:57;;;;;;;12.27;5.63;;;14.10;95.10;;;;;;5094985;28;20032;-74
2021/05/20 04:00:23;;;;;;;16.63;8.77;;;14.10;95.00;;;;;;5093487;28;20436;-74
2021/05/20 04:02:49;;;;;;;15.18;9.15;;;14.20;94.80;;;;;;5094180;28;20065;-74
2021/05/20 04:05:15;;;;;;;9.85;4.90;;;14.20;94.50;;;;;;5094536;28;20051;-73
2021/05/20 04:07:41;;;;;;;12.50;4.43;;;14.20;94.20;;;;;;5095733;28;20071;-73
2021/05/20 04:10:08;;;;;;;10.25;4.03;;;14.30;94.20;;;;;;5095261;28;20103;-74
2021/05/20 04:12:33;;;;;;;9.63;4.57;;;14.30;93.90;;;;;;5094862;28;20069;-73
2021/05/20 04:14:59;;;;;;;11.27;3.92;;;14.30;93.70;;;;;;5094714;28;20055;-74
2021/05/20 04:17:25;;;;;;;11.43;4.68;;;14.30;93.60;;;;;;5093830;28;20025;-73
2021/05/20 04:19:50;;;;;;;15.13;6.82;;;14.30;93.40;;;;;;5094781;28;20043;-74
2021/05/20 04:22:16;;;;;;;23.65;15.13;;;14.40;93.40;;;;;;5093629;28;20469;-73
2021/05/20 04:24:42;;;;;;;30.08;20.70;;;14.40;93.20;;;;;;5094853;28;20388;-74
2021/05/20 04:27:07;;;;;;;31.13;19.73;;;14.40;93.10;;;;;;5094414;28;20024;-75
2021/05/20 04:29:33;;;;;;;36.13;24.98;;;14.40;93.00;;;;;;5093641;28;20386;-76
2021/05/20 04:31:59;;;;;;;38.90;27.30;;;14.40;92.80;;;;;;5094122;28;20020;-74
2021/05/20 04:34:24;;;;;;;29.45;21.02;;;14.40;92.90;;;;;;5092861;28;20064;-77
2021/05/20 04:36:50;;;;;;;30.15;22.00;;;14.40;92.50;;;;;;5092454;28;20032;-74
2021/05/20 04:39:16;;;;;;;21.83;15.00;;;14.50;92.40;;;;;;5094857;28;20036;-75
2021/05/20 04:41:42;;;;;;;9.65;6.88;;;14.50;92.30;;;;;;5092899;28;20470;-75
2021/05/20 04:44:08;;;;;;;8.80;5.57;;;14.50;92.30;;;;;;5084944;28;20425;-78
2021/05/20 04:46:34;;;;;;;6.38;3.83;;;14.60;92.30;;;;;;5093079;28;20024;-72
2021/05/20 04:49:02;;;;;;;6.38;4.15;;;14.70;92.20;;;;;;5079056;28;20032;-73
2021/05/20 04:51:28;;;;;;;5.10;3.08;;;14.80;92.10;;;;;;5088448;28;20032;-76
2021/05/20 04:53:54;;;;;;;4.30;2.50;;;14.90;91.50;;;;;;5076003;28;20028;-74
2021/05/20 04:56:23;;;;;;;6.18;2.20;;;15.10;91.10;;;;;;5078795;28;20020;-71
2021/05/20 04:58:52;;;;;;;4.57;2.63;;;15.10;90.70;;;;;;5074766;28;20024;-71
2021/05/20 05:01:17;;;;;;;4.25;2.08;;;15.20;90.40;;;;;;5087206;28;20028;-74
2021/05/20 05:03:43;;;;;;;5.10;2.40;;;15.20;89.10;;;;;;5090085;28;20470;-72
2021/05/20 05:06:09;;;;;;;8.13;3.42;;;15.10;88.50;;;;;;5087691;28;20522;-72
2021/05/20 05:08:34;;;;;;;9.35;5.45;;;15.20;88.30;;;;;;5087668;28;20025;-74
2021/05/20 05:11:00;;;;;;;10.93;6.80;;;15.10;88.10;;;;;;5087324;28;20032;-79
2021/05/20 05:13:26;;;;;;;14.02;8.68;;;15.10;88.30;;;;;;5085685;28;20031;-75
2021/05/20 05:15:54;;;;;;;13.23;7.60;;;15.10;87.90;;;;;;5092983;28;20047;-76
2021/05/20 05:18:20;;;;;;;15.63;8.18;;;15.00;87.60;;;;;;5091929;28;20378;-74
2021/05/20 05:20:45;;;;;;;8.60;5.72;;;15.00;87.70;;;;;;5092498;28;20026;-77
2021/05/20 05:23:11;;;;;;;5.57;2.90;;;15.00;88.10;;;;;;5084141;28;20448;-69
2021/05/20 05:25:37;;;;;;;5.43;3.00;;;15.00;88.00;;;;;;5089939;28;20065;-68
2021/05/20 05:28:03;;;;;;;4.72;2.63;;;15.00;88.20;;;;;;5090913;28;20032;-67
2021/05/20 05:30:29;;;;;;;9.52;3.20;;;15.00;87.60;;;;;;5091599;28;20023;-67
2021/05/20 05:32:54;;;;;;;7.90;3.08;;;15.00;87.70;;;;;;5082197;28;20481;-67
2021/05/20 05:35:20;;;;;;;8.52;4.05;;;15.00;87.50;;;;;;5088764;28;20531;-68
2021/05/20 05:37:46;;;;;;;8.40;4.20;;;14.90;86.90;;;;;;5084350;28;20028;-76
2021/05/20 05:40:12;;;;;;;10.52;4.82;;;14.90;86.80;;;;;;5089280;28;20027;-74
2021/05/20 05:42:37;;;;;;;9.95;4.32;;;14.90;86.80;;;;;;5090415;28;20093;-75
2021/05/20 05:45:05;;;;;;;9.50;3.72;;;14.90;86.40;;;;;;5093273;28;20386;-76
2021/05/20 05:47:31;;;;;;;8.75;2.95;;;14.90;86.00;;;;;;5087860;28;20031;-75
2021/05/20 05:50:03;;;;;;;5.20;2.28;;;15.00;86.40;;;;;;5088389;28;20086;-76
2021/05/20 05:52:29;;;;;;;3.63;2.00;;;15.00;86.00;;;;;;5092167;28;20028;-75
2021/05/20 05:54:54;;;;;;;4.25;2.00;;;15.10;85.30;;;;;;5090664;28;20066;-75
2021/05/20 05:57:20;;;;;;;5.28;2.17;;;15.10;85.00;;;;;;5085375;28;20024;-76
2021/05/20 05:59:48;;;;;;;4.20;2.20;;;15.20;84.90;;;;;;5089075;28;20182;-75
2021/05/20 06:02:16;;;;;;;4.15;2.10;;;15.30;85.00;;;;;;5086375;28;20028;-76
2021/05/20 06:04:42;;;;;;;3.58;2.10;;;15.40;84.40;;;;;;5089043;28;20025;-75
2021/05/20 06:07:08;;;;;;;3.72;2.15;;;15.60;84.70;;;;;;5084262;28;20036;-76
2021/05/20 06:09:33;;;;;;;4.75;1.80;;;15.80;84.20;;;;;;5082386;28;20021;-77
2021/05/20 06:11:59;;;;;;;4.35;1.90;;;16.10;83.40;;;;;;5092415;28;20039;-75
2021/05/20 06:14:25;;;;;;;6.60;1.90;;;16.30;81.70;;;;;;5082622;28;20027;-78
2021/05/20 06:16:51;;;;;;;4.20;1.80;;;16.40;80.30;;;;;;5091426;28;20052;-78
2021/05/20 06:19:17;;;;;;;4.05;1.65;;;16.50;79.80;;;;;;5085139;28;20383;-76
2021/05/20 06:21:43;;;;;;;3.20;1.88;;;16.80;79.70;;;;;;5086571;28;20040;-76
2021/05/20 06:24:10;;;;;;;2.70;1.77;;;17.10;79.50;;;;;;5083348;28;20035;-76
2021/05/20 06:26:36;;;;;;;4.40;2.15;;;17.50;79.10;;;;;;5083102;28;20691;-76
2021/05/20 06:29:02;;;;;;;2.42;1.45;;;18.20;79.90;;;;;;5091963;28;20032;-77
2021/05/20 06:31:29;;;;;;;2.38;1.70;;;19.10;78.30;;;;;;5088680;28;20146;-78
2021/05/20 06:33:54;;;;;;;3.63;1.52;;;20.00;75.30;;;;;;5090834;28;20024;-78
2021/05/20 06:36:22;;;;;;;5.28;1.92;;;20.80;72.10;;;;;;5080419;28;20032;-79
2021/05/20 06:38:48;;;;;;;4.03;2.00;;;21.50;70.00;;;;;;5076417;28;20110;-78
2021/05/20 06:41:13;;;;;;;3.70;1.80;;;22.20;67.10;;;;;;5082970;28;20044;-78
2021/05/20 06:43:39;;;;;;;4.53;1.58;;;22.80;65.20;;;;;;5079878;28;20044;-78
2021/05/20 06:46:06;;;;;;;2.60;1.27;;;23.30;62.20;;;;;;5074134;28;20032;-78
2021/05/20 06:48:33;;;;;;;4.22;1.48;;;23.80;60.70;;;;;;5084697;28;20024;-77
2021/05/20 06:50:58;;;;;;;4.25;1.30;;;24.30;59.90;;;;;;5087363;28;20417;-79
2021/05/20 06:53:25;;;;;;;3.83;1.45;;;24.90;59.10;;;;;;5085206;28;20028;-78
2021/05/20 06:55:55;;;;;;;3.05;1.33;;;25.20;57.30;;;;;;5084569;28;20031;-78
2021/05/20 07:01:05;;;;;;;4.75;2.00;;;25.10;54.90;;;;;;5080766;28;20055;-80
2021/05/20 07:03:31;;;;;;;4.18;1.50;;;25.20;54.20;;;;;;5085101;28;20028;-82
2021/05/20 07:05:57;;;;;;;2.30;1.23;;;25.50;54.10;;;;;;5091537;28;20038;-82
2021/05/20 07:08:22;;;;;;;1.40;1.10;;;25.80;53.00;;;;;;5077519;28;20462;-82
2021/05/20 07:10:48;;;;;;;3.08;1.58;;;25.80;52.30;;;;;;5075189;28;20039;-82
2021/05/20 07:13:14;;;;;;;5.95;1.30;;;25.80;52.00;;;;;;5082437;28;20021;-80
2021/05/20 07:15:40;;;;;;;6.22;1.50;;;26.10;51.20;;;;;;5084635;28;20056;-86
2021/05/20 07:18:06;;;;;;;3.13;1.30;;;26.30;51.00;;;;;;5076201;28;20157;-75
2021/05/20 07:20:31;;;;;;;6.68;1.40;;;26.60;50.40;;;;;;5069775;28;20028;-75
2021/05/20 07:23:07;;;;;;;6.18;1.30;;;26.80;49.70;;;;;;5078291;28;20055;-74
2021/05/20 07:25:32;;;;;;;2.90;1.25;;;26.60;48.60;;;;;;5087568;28;20081;-74
2021/05/20 07:27:58;;;;;;;4.20;1.48;;;26.60;49.10;;;;;;5087135;28;20024;-74
2021/05/20 07:30:24;;;;;;;2.63;1.15;;;26.80;48.10;;;;;;5081396;28;20111;-75
2021/05/20 07:32:50;;;;;;;2.72;1.20;;;27.00;47.90;;;;;;5082022;28;20546;-75
2021/05/20 07:35:15;;;;;;;2.65;1.20;;;27.20;47.30;;;;;;5088408;28;20028;-75
2021/05/20 07:37:41;;;;;;;4.85;1.23;;;27.00;46.60;;;;;;5086780;28;20024;-72
2021/05/20 07:40:08;;;;;;;2.53;1.50;;;27.00;46.40;;;;;;5080892;28;20074;-73
2021/05/20 07:42:34;;;;;;;5.28;1.38;;;27.30;46.70;;;;;;5088707;28;20599;-74
2021/05/20 07:44:59;;;;;;;22.08;1.67;;;27.60;45.80;;;;;;5079050;28;20111;-73
2021/05/20 07:47:25;;;;;;;2.42;1.10;;;27.80;45.80;;;;;;5077979;28;20115;-74
2021/05/20 07:49:51;;;;;;;2.25;1.13;;;27.90;44.90;;;;;;5085768;28;20099;-74
2021/05/20 07:52:18;;;;;;;1.63;1.10;;;27.80;45.00;;;;;;5077915;28;20054;-74
2021/05/20 07:54:44;;;;;;;3.95;1.10;;;27.70;45.20;;;;;;5079779;28;20028;-74
2021/05/20 07:57:09;;;;;;;3.83;1.38;;;27.60;45.00;;;;;;5082787;28;20059;-72
2021/05/20 07:59:35;;;;;;;2.97;1.50;;;27.70;45.20;;;;;;5082859;28;20028;-73
2021/05/20 08:02:14;;;;;;;4.05;1.42;;;28.10;45.40;;;;;;5079189;28;20570;-74
2021/05/20 08:04:41;;;;;;;1.88;1.42;;;28.40;44.50;;;;;;5078118;28;20028;-73
2021/05/20 08:09:35;;;;;;;3.50;1.23;;;28.50;44.20;;;;;;5093535;28;20803;-73
2021/05/20 08:12:01;;;;;;;3.97;1.90;;;28.90;44.10;;;;;;5088990;28;20036;-74
2021/05/20 08:14:27;;;;;;;2.67;1.25;;;29.30;43.10;;;;;;5087686;28;20106;-74
2021/05/20 08:16:53;;;;;;;5.00;1.60;;;29.40;42.10;;;;;;5093788;28;20115;-74
2021/05/20 08:19:18;;;;;;;4.30;1.27;;;29.30;42.30;;;;;;5087014;28;20017;-75
2021/05/20 08:21:44;;;;;;;2.92;2.08;;;29.30;42.70;;;;;;5089329;28;21260;-73
2021/05/20 08:24:10;;;;;;;2.55;1.30;;;29.50;41.90;;;;;;5093489;28;20046;-73
2021/05/20 08:26:36;;;;;;;3.38;1.70;;;29.50;41.30;;;;;;5090929;28;20036;-75
2021/05/20 08:29:02;;;;;;;2.90;1.40;;;29.10;41.10;;;;;;5091831;28;20111;-74
2021/05/20 08:31:29;;;;;;;2.53;1.00;;;28.80;40.90;;;;;;5087605;28;20385;-74
2021/05/20 08:33:56;;;;;;;5.20;1.55;;;28.60;41.90;;;;;;5075806;28;20085;-74
2021/05/20 08:36:22;;;;;;;4.07;1.45;;;28.50;41.80;;;;;;5074478;28;20028;-74
2021/05/20 08:38:48;;;;;;;2.53;1.40;;;28.20;41.30;;;;;;5079938;28;20035;-74
2021/05/20 08:41:17;;;;;;;2.95;1.40;;;28.10;42.50;;;;;;5082297;28;20021;-74
2021/05/20 08:43:43;;;;;;;3.28;1.20;;;28.40;42.90;;;;;;5092254;28;20048;-74
2021/05/20 08:46:09;;;;;;;2.97;1.20;;;28.80;42.20;;;;;;5083275;28;20436;-74
2021/05/20 08:48:35;;;;;;;3.28;1.25;;;28.70;41.60;;;;;;5086120;28;20419;-73
2021/05/20 08:51:02;;;;;;;5.82;1.48;;;28.00;41.60;;;;;;5082602;28;20028;-73
2021/05/20 08:53:27;;;;;;;4.30;1.50;;;27.50;42.60;;;;;;5083465;28;20103;-74
2021/05/20 08:55:53;;;;;;;4.85;1.40;;;27.20;42.90;;;;;;5089304;28;20529;-73
2021/05/20 08:58:24;;;;;;;3.65;1.40;;;27.00;43.60;;;;;;5090701;28;20030;-73
2021/05/20 09:00:51;;;;;;;3.95;1.75;;;27.10;44.30;;;;;;5085307;28;20028;-73
2021/05/20 09:03:17;;;;;;;4.18;1.67;;;26.90;43.90;;;;;;5078338;28;20040;-73
2021/05/20 09:05:43;;;;;;;3.90;1.23;;;26.70;43.80;;;;;;5083503;28;20084;-72
2021/05/20 09:08:11;;;;;;;3.47;1.40;;;26.30;43.30;;;;;;5086000;28;20021;-73
2021/05/20 09:10:38;;;;;;;2.35;1.48;;;26.00;44.00;;;;;;5082669;28;20123;-72
2021/05/20 09:13:07;;;;;;;4.13;1.52;;;26.00;44.90;;;;;;5094988;28;20036;-71
2021/05/20 09:15:38;;;;;;;2.15;1.30;;;25.90;44.00;;;;;;5085840;28;20048;-73
2021/05/20 09:18:07;;;;;;;3.03;1.20;;;25.70;43.60;;;;;;5078734;28;20371;-73
2021/05/20 09:20:34;;;;;;;5.53;1.60;;;25.40;43.80;;;;;;5076172;28;20028;-70
2021/05/20 09:23:11;;;;;;;7.03;1.45;;;25.10;44.50;;;;;;5078311;28;20028;-71
2021/05/20 09:25:39;;;;;;;4.05;1.30;;;25.10;45.40;;;;;;5085132;28;20036;-71
2021/05/20 09:28:07;;;;;;;3.63;2.38;;;25.50;45.40;;;;;;5084835;28;20386;-71
2021/05/20 09:30:44;;;;;;;5.10;1.33;;;25.90;45.00;;;;;;5089645;28;20520;-71
2021/05/20 09:33:13;;;;;;;2.47;1.40;;;26.00;44.20;;;;;;5078772;28;20035;-71
2021/05/20 09:35:40;;;;;;;4.43;1.55;;;26.30;44.80;;;;;;5090115;28;20406;-74
2021/05/20 09:38:13;;;;;;;3.65;1.52;;;27.00;44.50;;;;;;5090877;28;20115;-71
2021/05/20 09:40:51;;;;;;;2.33;1.27;;;27.40;43.50;;;;;;5085816;28;20024;-71
2021/05/20 09:43:21;;;;;;;2.75;1.20;;;28.00;42.70;;;;;;5075900;28;20067;-71
2021/05/20 09:45:52;;;;;;;3.15;1.50;;;27.90;41.60;;;;;;5088521;28;20129;-73
2021/05/20 09:48:18;;;;;;;4.10;1.50;;;27.70;41.50;;;;;;5082019;28;20481;-74
2021/05/20 09:50:46;;;;;;;4.75;1.48;;;27.70;42.30;;;;;;5082866;28;20082;-72
2021/05/20 09:53:19;;;;;;;5.18;1.40;;;28.10;41.80;;;;;;5078752;28;20024;-69
2021/05/20 09:55:52;;;;;;;5.03;1.90;;;27.70;41.50;;;;;;5083629;28;20024;-67
2021/05/20 09:58:21;;;;;;;3.00;1.60;;;27.20;42.00;;;;;;5088634;28;20051;-73
2021/05/20 10:00:48;;;;;;;2.88;2.15;;;26.70;42.60;;;;;;5089192;28;20032;-67
2021/05/20 10:03:15;;;;;;;2.80;1.42;;;26.80;43.10;;;;;;5081236;28;20028;-67
2021/05/20 10:05:42;;;;;;;4.50;1.60;;;27.40;43.50;;;;;;5082131;28;20032;-67
2021/05/20 10:08:11;;;;;;;3.47;1.70;;;27.60;43.00;;;;;;5086892;28;20024;-66
2021/05/20 10:10:40;;;;;;;6.68;2.00;;;27.40;43.10;;;;;;5084205;28;20062;-66
2021/05/20 10:13:08;;;;;;;4.57;1.95;;;28.10;42.60;;;;;;5079217;28;20030;-68
2021/05/20 10:15:35;;;;;;;4.05;1.70;;;28.80;41.70;;;;;;5076108;28;20482;-68
2021/05/20 10:18:06;;;;;;;5.28;2.22;;;29.30;41.40;;;;;;5090093;28;20109;-67
2021/05/20 10:20:34;;;;;;;2.70;1.42;;;29.50;41.10;;;;;;5088946;28;20050;-69
2021/05/20 10:23:00;;;;;;;4.90;1.33;;;29.80;40.30;;;;;;5090918;28;20063;-71
2021/05/20 10:25:27;;;;;;;4.22;1.40;;;29.90;39.70;;;;;;5088464;28;20474;-70
2021/05/20 10:27:53;;;;;;;2.25;1.60;;;29.20;39.20;;;;;;5088915;28;20020;-71
2021/05/20 10:30:22;;;;;;;4.07;1.70;;;28.90;39.80;;;;;;5083460;28;20518;-77
2021/05/20 10:32:49;;;;;;;3.15;1.35;;;28.50;39.80;;;;;;5093380;28;20024;-72
2021/05/20 10:35:16;;;;;;;4.22;1.50;;;28.50;40.20;;;;;;5074293;28;20020;-75
2021/05/20 10:37:43;;;;;;;4.22;1.50;;;28.90;40.30;;;;;;5080965;28;20056;-72
2021/05/20 10:40:24;;;;;;;2.85;1.40;;;29.10;40.00;;;;;;5084455;28;20034;-73
2021/05/20 10:43:07;;;;;;;4.97;1.40;;;29.30;39.50;;;;;;5086130;28;20386;-74
2021/05/20 10:45:34;;;;;;;4.57;1.70;;;29.40;39.50;;;;;;5078279;28;20051;-75
2021/05/20 10:48:03;;;;;;;2.95;1.40;;;29.80;39.50;;;;;;5086351;28;20028;-75
2021/05/20 10:50:51;;;;;;;3.45;1.27;;;29.90;39.30;;;;;;5085756;28;20482;-74
2021/05/20 10:53:41;;;;;;;3.72;1.27;;;29.60;38.80;;;;;;5080151;28;20487;-72
2021/05/20 10:56:22;;;;;;;3.03;1.35;;;29.70;38.80;;;;;;5083419;28;20032;-74
2021/05/20 10:58:49;;;;;;;2.50;1.40;;;29.80;38.20;;;;;;5085476;28;20489;-73
2021/05/20 11:01:21;;;;;;;3.20;1.33;;;29.40;38.00;;;;;;5087313;28;20025;-70
2021/05/20 11:03:46;;;;;;;4.93;1.50;;;28.80;38.20;;;;;;5086474;28;20032;-70
2021/05/20 11:06:17;;;;;;;4.35;1.70;;;28.20;39.10;;;;;;5086195;28;20093;-71
2021/05/20 11:08:42;;;;;;;4.00;1.60;;;28.10;39.90;;;;;;5089030;28;20028;-72
2021/05/20 11:11:29;;;;;;;6.80;1.52;;;27.70;40.20;;;;;;5087004;28;20108;-70
2021/05/20 11:13:55;;;;;;;3.85;1.50;;;26.90;40.30;;;;;;5088984;28;20024;-70
2021/05/20 11:16:29;;;;;;;7.03;1.65;;;26.30;40.80;;;;;;5086369;28;20063;-72
2021/05/20 11:21:59;;;;;;;1.77;1.42;;;25.20;42.80;;;;;;5074666;28;20028;-74
2021/05/20 11:24:27;;;;;;;5.50;1.50;;;25.00;43.50;;;;;;5074654;28;20433;-76
2021/05/20 11:26:54;;;;;;;7.72;1.63;;;24.90;43.90;;;;;;5082808;28;20024;-70
2021/05/20 11:29:25;;;;;;;3.45;1.77;;;24.80;44.40;;;;;;5089376;28;20025;-70
2021/05/20 11:31:54;;;;;;;2.60;1.35;;;24.60;45.00;;;;;;5084536;28;20035;-71
2021/05/20 11:34:39;;;;;;;3.65;1.95;;;24.40;45.30;;;;;;5082951;28;20036;-74
2021/05/20 11:37:05;;;;;;;6.78;1.40;;;24.30;45.20;;;;;;5081556;28;20059;-72
2021/05/20 11:39:31;;;;;;;7.15;1.70;;;24.30;45.00;;;;;;5085570;28;20028;-72
2021/05/20 11:41:59;;;;;;;2.22;1.40;;;24.40;45.00;;;;;;5093474;28;20036;-73
2021/05/20 11:44:27;;;;;;;2.15;1.40;;;24.50;44.30;;;;;;5091285;28;20209;-74
2021/05/20 11:47:06;;;;;;;4.80;1.63;;;24.50;44.40;;;;;;5092379;28;20036;-73
2021/05/20 11:49:32;;;;;;;5.07;1.52;;;24.60;44.30;;;;;;5094470;28;20028;-73
2021/05/20 11:52:09;;;;;;;3.55;1.45;;;24.60;44.90;;;;;;5093342;28;20043;-72
2021/05/20 11:54:40;;;;;;;2.35;1.33;;;24.70;44.80;;;;;;5092281;28;20086;-71
2021/05/20 11:57:08;;;;;;;4.55;1.50;;;24.50;44.90;;;;;;5108205;28;20028;-72
2021/05/20 11:59:34;;;;;;;4.18;1.50;;;24.30;45.00;;;;;;5093015;28;20035;-73
2021/05/20 12:02:00;;;;;;;2.53;1.30;;;24.30;44.90;;;;;;5090575;28;20032;-74
2021/05/20 12:04:27;;;;;;;2.95;1.40;;;24.30;45.00;;;;;;5092061;28;20089;-75
2021/05/20 12:06:54;;;;;;;2.60;1.50;;;24.20;44.90;;;;;;5092809;28;20099;-73
2021/05/20 12:09:20;;;;;;;4.70;1.70;;;24.20;45.20;;;;;;5086992;28;20052;-72
2021/05/20 12:11:47;;;;;;;5.70;2.45;;;24.20;45.90;;;;;;5090666;28;20032;-72
2021/05/20 12:14:26;;;;;;;3.90;1.80;;;24.10;45.40;;;;;;5093233;28;20167;-71
2021/05/20 12:17:05;;;;;;;3.17;1.40;;;24.20;45.80;;;;;;5094438;28;20040;-72
2021/05/20 12:19:33;;;;;;;4.25;1.40;;;24.40;45.60;;;;;;5094663;28;20032;-73
2021/05/20 12:22:03;;;;;;;3.35;1.50;;;24.50;45.20;;;;;;5093431;28;20066;-72
2021/05/20 12:24:40;;;;;;;2.35;1.30;;;24.40;45.00;;;;;;5092142;28;20032;-72
2021/05/20 12:27:15;;;;;;;2.75;1.40;;;24.40;44.40;;;;;;5094345;28;20462;-71
2021/05/20 12:29:52;;;;;;;3.40;1.70;;;24.20;44.60;;;;;;5091749;28;20036;-72
2021/05/20 12:32:34;;;;;;;2.20;1.50;;;24.00;45.00;;;;;;5109633;28;20032;-71
2021/05/20 12:35:19;;;;;;;2.58;1.52;;;23.90;45.70;;;;;;5090714;28;20043;-67
2021/05/20 12:37:50;;;;;;;3.42;1.73;;;23.90;46.30;;;;;;5090613;28;20036;-68
2021/05/20 12:40:18;;;;;;;4.68;1.80;;;24.00;46.50;;;;;;5088904;28;20040;-69
2021/05/20 12:42:51;;;;;;;3.30;1.90;;;24.00;46.50;;;;;;5077737;28;20142;-68
2021/05/20 12:45:25;;;;;;;5.28;1.67;;;24.00;46.20;;;;;;5078657;28;20036;-69
2021/05/20 12:47:53;;;;;;;3.95;1.48;;;23.90;46.60;;;;;;5080844;28;20024;-68
2021/05/20 12:50:37;;;;;;;2.58;1.40;;;23.80;46.70;;;;;;5078087;28;20025;-73
2021/05/20 12:53:03;;;;;;;2.65;1.60;;;23.70;46.70;;;;;;5077558;28;20028;-67
2021/05/20 12:55:51;;;;;;;6.30;1.60;;;23.70;47.00;;;;;;5072480;28;20028;-72